Airfield :
LOGIN :

Register | Disclaimer

   EN    FR    IT 

 










Legend :    VFR   Marginal VFR   IFR   Intensive IFR   Very Intensive IFR
Visi :
Ceiling :
>= 8 km
>= 3000ft
5 to 8 km
1000 to 3000 ft
1500m to 5 km
500 to 1000 ft
800 to 1500m
200 to 500 ft
< 800m
< 200 ft
Symbols :   Thunderstorms  Fog  Heavy snow  Heavy precipitations  Wind > 20 kt
SIGMETs :     Misc.  Thunderstorms  Icing  Turbulence  Mountain Waves  Volcanic Ashes







- Airport Elevation : 505 ft
- IATA code : SXB
- Download approach charts


LFST - Strasbourg

CURRENT METAR :
  • 240100Z AUTO 34005KT CAVOK 12/09 Q1023 NOSIG

EXPIRED METARs :
  • 240030Z AUTO 35004KT CAVOK 12/09 Q1023 NOSIG
  • 240000Z AUTO 35004KT CAVOK 13/09 Q1024 NOSIG
  • 232330Z AUTO 34005KT 9999 FEW048 OVC130 13/10 Q1024 NOSIG
  • 232300Z AUTO 33004KT 9999 FEW046 BKN130 13/10 Q1024 NOSIG
  • 232230Z AUTO 34003KT 9999 FEW047 SCT120 13/09 Q1024 NOSIG
  • 232200Z AUTO 34004KT 320V020 9999 SCT047 14/09 Q1024 NOSIG

TAF TAF LFST
Valid from the 24 at 00:00 until the 25 at 00:00 UTC


232300Z 2400/2424 36007KT 9999 SCT055 SCT280
PROB40
TEMPO 2415/2418 FEW050TCU BKN060
No reported NOTAMs for that airfield.



MET'MAP, your aeronautical weather chart ! - Copyright ORBIFLY December 2007 - Disclaimer

ORBIFLY MET'MAP TEAM :

Programming & Development : Alexandra Zaïnal
Concept & Development : Baudouin d'Aumeries
Co-Development & Prog : Marc-Olivier Méhu
Technical & hardware support : Manuel Goepfert

Contact : metmap@orbifly.com




SOURCES & CREDITS :

   NOAA